createdAt,value
2022-12-24T00:01:03.062Z,1.60
2022-12-24T00:03:30.330Z,1.70
2022-12-24T00:05:57.578Z,2.30
2022-12-24T00:08:25.152Z,1.70
2022-12-24T00:10:53.677Z,1.60
2022-12-24T00:13:21.533Z,1.33
2022-12-24T00:15:56.279Z,1.83
2022-12-24T00:18:23.349Z,1.87
2022-12-24T00:20:51.048Z,1.80
2022-12-24T00:23:19.704Z,1.80
2022-12-24T00:25:55.469Z,1.80
2022-12-24T00:28:22.857Z,1.53
2022-12-24T00:30:49.547Z,1.40
2022-12-24T00:33:22.423Z,1.53
2022-12-24T00:35:52.846Z,1.80
2022-12-24T00:38:19.800Z,1.80
2022-12-24T00:40:46.518Z,1.30
2022-12-24T00:43:13.221Z,1.70
2022-12-24T00:45:40.422Z,1.70
2022-12-24T00:48:08.011Z,1.70
2022-12-24T00:50:34.762Z,1.45
2022-12-24T00:53:01.533Z,1.60
2022-12-24T00:55:29.890Z,1.57
2022-12-24T00:57:56.889Z,1.50
2022-12-24T01:00:23.916Z,1.70
2022-12-24T01:02:50.712Z,1.60
2022-12-24T01:05:17.730Z,1.60
2022-12-24T01:07:45.038Z,1.60
2022-12-24T01:10:13.888Z,1.57
2022-12-24T01:12:41.225Z,1.90
2022-12-24T01:15:09.786Z,1.77
2022-12-24T01:17:36.939Z,1.80
2022-12-24T01:20:06.280Z,1.67
2022-12-24T01:22:33.185Z,1.60
2022-12-24T01:24:59.884Z,1.63
2022-12-24T01:27:26.578Z,2.00
2022-12-24T01:29:53.839Z,2.07
2022-12-24T01:32:20.989Z,1.70
2022-12-24T01:34:47.708Z,2.17
2022-12-24T01:37:14.348Z,1.70
2022-12-24T01:39:41.065Z,2.27
2022-12-24T01:42:20.943Z,2.10
2022-12-24T01:44:51.440Z,1.73
2022-12-24T01:47:22.330Z,1.80
2022-12-24T01:49:53.650Z,1.90
2022-12-24T01:52:25.821Z,1.87
2022-12-24T01:54:58.186Z,1.67
2022-12-24T01:57:30.209Z,1.67
2022-12-24T02:00:01.810Z,1.93
2022-12-24T02:02:32.518Z,1.87
2022-12-24T02:05:06.139Z,1.80
2022-12-24T02:07:33.318Z,1.40
2022-12-24T02:10:01.492Z,1.87
2022-12-24T02:12:32.403Z,1.57
2022-12-24T02:14:59.704Z,1.83
2022-12-24T02:17:29.334Z,1.93
2022-12-24T02:20:20.179Z,1.67
2022-12-24T02:23:20.517Z,1.60
2022-12-24T02:25:50.302Z,1.77
2022-12-24T02:28:43.899Z,1.70
2022-12-24T02:31:20.947Z,1.87
2022-12-24T02:33:54.881Z,1.80
2022-12-24T02:36:54.477Z,1.80
2022-12-24T02:39:28.183Z,1.87
2022-12-24T02:41:58.573Z,1.60
2022-12-24T02:44:28.874Z,1.60
2022-12-24T02:46:59.094Z,1.70
2022-12-24T02:49:25.971Z,1.80
2022-12-24T02:51:52.570Z,1.60
2022-12-24T02:54:19.353Z,1.63
2022-12-24T02:56:54.425Z,1.57
2022-12-24T02:59:35.399Z,1.80
2022-12-24T03:02:14.377Z,1.97
2022-12-24T03:04:56.593Z,2.20
2022-12-24T03:07:46.708Z,1.80
2022-12-24T03:10:28.537Z,1.67
2022-12-24T03:13:08.205Z,2.03
2022-12-24T03:15:36.952Z,1.77
2022-12-24T03:18:05.946Z,1.90
2022-12-24T03:20:43.366Z,2.13
2022-12-24T03:23:10.660Z,1.77
2022-12-24T03:25:42.180Z,2.00
2022-12-24T03:28:12.269Z,2.07
2022-12-24T03:30:41.073Z,1.90
2022-12-24T03:33:07.976Z,1.60
2022-12-24T03:35:34.779Z,2.00
2022-12-24T03:38:01.591Z,1.70
2022-12-24T03:40:28.233Z,1.70
2022-12-24T03:42:54.904Z,1.90
2022-12-24T03:45:21.508Z,2.00
2022-12-24T03:47:48.193Z,1.90
2022-12-24T03:50:14.883Z,2.03
2022-12-24T03:52:41.659Z,2.00
2022-12-24T03:55:08.684Z,1.93
2022-12-24T03:57:35.462Z,1.97
2022-12-24T04:00:02.868Z,1.83
2022-12-24T04:02:39.041Z,2.00
2022-12-24T04:05:06.848Z,2.00
2022-12-24T04:07:33.844Z,1.73
2022-12-24T04:10:00.595Z,1.93
2022-12-24T04:12:27.256Z,1.80
2022-12-24T04:14:53.908Z,2.20
2022-12-24T04:17:20.591Z,1.93
2022-12-24T04:19:47.282Z,1.93
2022-12-24T04:22:13.905Z,2.07
2022-12-24T04:24:40.582Z,2.00
2022-12-24T04:27:07.206Z,1.80
2022-12-24T04:29:33.884Z,1.80
2022-12-24T04:32:00.617Z,1.87
2022-12-24T04:34:27.943Z,2.00
2022-12-24T04:36:54.588Z,2.27
2022-12-24T04:39:21.386Z,1.93
2022-12-24T04:41:48.054Z,1.93
2022-12-24T04:44:14.686Z,1.60
2022-12-24T04:46:41.353Z,2.20
2022-12-24T04:49:08.582Z,1.80
2022-12-24T04:51:35.252Z,1.90
2022-12-24T04:54:01.953Z,1.70
2022-12-24T04:56:31.559Z,1.60
2022-12-24T04:59:01.715Z,1.80
2022-12-24T05:01:30.751Z,1.90
2022-12-24T05:03:57.949Z,1.93
2022-12-24T05:06:29.281Z,1.90
2022-12-24T05:08:57.139Z,1.57
2022-12-24T05:11:24.381Z,1.90
2022-12-24T05:13:51.481Z,2.10
2022-12-24T05:16:20.651Z,1.90
2022-12-24T05:18:47.728Z,2.10
2022-12-24T05:21:19.469Z,1.90
2022-12-24T05:23:46.801Z,1.90
2022-12-24T05:26:30.252Z,1.90
2022-12-24T05:28:58.356Z,2.17
2022-12-24T05:31:26.714Z,2.43
2022-12-24T05:33:53.459Z,2.60
2022-12-24T05:36:20.577Z,2.00
2022-12-24T05:38:47.356Z,2.00
2022-12-24T05:41:13.940Z,2.23
2022-12-24T05:43:40.978Z,2.67
2022-12-24T05:46:13.677Z,2.17
2022-12-24T05:48:40.756Z,2.40
2022-12-24T05:51:09.677Z,2.07
2022-12-24T05:53:37.021Z,2.07
2022-12-24T05:56:11.631Z,1.77
2022-12-24T05:58:39.770Z,2.10
2022-12-24T06:01:07.376Z,2.23
2022-12-24T06:03:34.820Z,1.97
2022-12-24T06:06:05.726Z,2.67
2022-12-24T06:08:33.405Z,1.90
2022-12-24T06:11:02.741Z,2.20
2022-12-24T06:13:30.101Z,2.37
2022-12-24T06:16:01.455Z,2.47
2022-12-24T06:18:32.590Z,2.67
2022-12-24T06:21:00.100Z,2.57
2022-12-24T06:23:28.470Z,2.57
2022-12-24T06:25:57.310Z,2.40
2022-12-24T06:28:24.098Z,2.13
2022-12-24T06:30:53.639Z,2.20
2022-12-24T06:33:24.033Z,2.07
2022-12-24T06:35:50.661Z,2.03
2022-12-24T06:38:17.365Z,2.50
2022-12-24T06:40:46.388Z,1.80
2022-12-24T06:43:14.403Z,2.07
2022-12-24T06:45:45.484Z,2.10
2022-12-24T06:48:12.666Z,1.90
2022-12-24T06:50:39.561Z,2.10
2022-12-24T06:53:06.318Z,2.30
2022-12-24T06:55:33.149Z,2.20
2022-12-24T06:57:59.833Z,1.60
2022-12-24T07:00:26.474Z,1.70
2022-12-24T07:02:53.335Z,1.87
2022-12-24T07:05:20.028Z,2.10
2022-12-24T07:07:46.692Z,2.17
2022-12-24T07:10:15.682Z,2.37
2022-12-24T07:12:42.687Z,1.60
2022-12-24T07:15:10.386Z,1.93
2022-12-24T07:17:37.188Z,2.60
2022-12-24T07:20:05.131Z,1.70
2022-12-24T07:22:31.799Z,1.90
2022-12-24T07:24:58.529Z,2.17
2022-12-24T07:27:25.167Z,1.83
2022-12-24T07:29:51.767Z,1.77
2022-12-24T07:32:18.715Z,1.90
2022-12-24T07:34:45.307Z,1.93
2022-12-24T07:37:12.111Z,1.83
2022-12-24T07:39:38.799Z,2.10
2022-12-24T07:42:05.561Z,1.93
2022-12-24T07:44:32.198Z,2.00
2022-12-24T07:46:58.963Z,1.97
2022-12-24T07:49:25.745Z,2.17
2022-12-24T07:51:52.462Z,2.10
2022-12-24T07:54:19.317Z,1.80
2022-12-24T07:56:46.929Z,2.10
2022-12-24T07:59:14.000Z,2.03
2022-12-24T08:01:41.509Z,2.17
2022-12-24T08:04:08.466Z,2.13
2022-12-24T08:06:35.219Z,2.20
2022-12-24T08:09:01.873Z,2.00
2022-12-24T08:11:28.789Z,2.13
2022-12-24T08:13:55.441Z,2.23
2022-12-24T08:16:22.353Z,1.87
2022-12-24T08:18:49.084Z,2.07
2022-12-24T08:21:15.999Z,2.00
2022-12-24T08:23:42.786Z,2.10
2022-12-24T08:26:10.725Z,1.80
2022-12-24T08:28:37.787Z,1.70
2022-12-24T08:31:05.272Z,2.33
2022-12-24T08:33:31.976Z,1.83
2022-12-24T08:36:01.156Z,1.60
2022-12-24T08:38:27.867Z,1.73
2022-12-24T08:40:55.314Z,1.73
2022-12-24T08:43:22.005Z,2.03
2022-12-24T08:45:50.081Z,1.70
2022-12-24T08:48:17.271Z,1.63
2022-12-24T08:50:44.143Z,1.40
2022-12-24T08:53:11.427Z,1.53
2022-12-24T08:55:38.141Z,1.60
2022-12-24T08:58:04.931Z,1.53
2022-12-24T09:00:31.862Z,1.57
2022-12-24T09:02:58.667Z,1.20
2022-12-24T09:05:26.148Z,1.27
2022-12-24T09:07:53.367Z,1.10
2022-12-24T09:10:20.220Z,1.40
2022-12-24T09:12:46.984Z,1.30
2022-12-24T09:15:13.743Z,1.47
2022-12-24T09:17:40.338Z,1.43
2022-12-24T09:20:08.256Z,1.87
2022-12-24T09:22:36.684Z,1.40
2022-12-24T09:25:04.035Z,1.50
2022-12-24T09:27:31.501Z,1.33
2022-12-24T09:29:58.338Z,1.60
2022-12-24T09:32:25.043Z,1.47
2022-12-24T09:34:51.713Z,1.53
2022-12-24T09:37:18.401Z,1.40
2022-12-24T09:39:45.163Z,1.43
2022-12-24T09:42:41.034Z,1.10
2022-12-24T09:45:20.028Z,1.20
2022-12-24T09:47:50.607Z,1.30
2022-12-24T09:50:34.817Z,1.10
2022-12-24T09:53:06.675Z,1.00
2022-12-24T09:55:43.997Z,1.30
2022-12-24T09:58:28.465Z,1.60
2022-12-24T10:00:56.474Z,0.90
2022-12-24T10:03:23.339Z,1.20
2022-12-24T10:06:31.760Z,1.10
2022-12-24T10:09:03.178Z,1.30
2022-12-24T10:11:47.188Z,1.13
2022-12-24T10:14:51.779Z,0.93
2022-12-24T10:17:53.224Z,1.10
2022-12-24T10:20:25.934Z,3.27
2022-12-24T10:23:01.387Z,3.43
2022-12-24T10:25:40.497Z,2.90
2022-12-24T10:28:15.754Z,1.60
2022-12-24T10:30:44.739Z,2.73
2022-12-24T10:33:18.852Z,2.70
2022-12-24T10:35:52.685Z,1.70
2022-12-24T10:38:19.571Z,2.00
2022-12-24T10:40:50.106Z,2.80
2022-12-24T10:43:21.109Z,2.40
2022-12-24T10:45:51.489Z,2.10
2022-12-24T10:48:27.432Z,2.13
2022-12-24T10:51:06.650Z,1.85
2022-12-24T10:53:48.131Z,2.10
2022-12-24T10:56:18.583Z,3.13
2022-12-24T10:58:50.661Z,2.00
2022-12-24T11:01:17.822Z,1.70
2022-12-24T11:03:44.771Z,2.27
2022-12-24T11:06:13.039Z,2.60
2022-12-24T11:08:42.763Z,2.87
2022-12-24T11:11:13.768Z,2.20
2022-12-24T11:14:14.725Z,2.40
2022-12-24T11:16:50.519Z,1.48
2022-12-24T11:19:20.563Z,1.60
2022-12-24T11:21:47.194Z,1.80
2022-12-24T11:24:13.856Z,1.92
2022-12-24T11:26:43.469Z,1.60
2022-12-24T11:29:25.631Z,2.25
2022-12-24T11:32:09.905Z,1.90
2022-12-24T11:34:36.802Z,1.73
2022-12-24T11:37:16.022Z,1.83
2022-12-24T11:40:02.261Z,2.03
2022-12-24T11:42:38.307Z,2.00
2022-12-24T11:45:21.173Z,2.20
2022-12-24T11:47:47.846Z,2.35
2022-12-24T11:50:32.892Z,2.43
2022-12-24T11:53:07.123Z,2.50
2022-12-24T11:55:41.352Z,4.57
2022-12-24T11:58:26.321Z,5.53
2022-12-24T12:01:03.005Z,2.90
2022-12-24T12:03:39.941Z,2.53
2022-12-24T12:06:23.795Z,3.23
2022-12-24T12:08:56.274Z,2.57
2022-12-24T12:11:26.003Z,2.70
2022-12-24T12:13:56.572Z,2.58
2022-12-24T12:16:29.764Z,2.42
2022-12-24T12:19:07.472Z,2.70
2022-12-24T12:21:44.307Z,3.22
2022-12-24T12:24:19.775Z,2.70
2022-12-24T12:26:48.817Z,2.87
2022-12-24T12:29:21.197Z,2.53
2022-12-24T12:31:52.631Z,2.70
2022-12-24T12:34:26.467Z,5.50
2022-12-24T12:37:32.060Z,8.00
2022-12-24T12:39:58.892Z,5.30
2022-12-24T12:42:33.917Z,5.00
2022-12-24T12:45:25.097Z,3.08
2022-12-24T12:47:54.908Z,3.43
2022-12-24T12:50:40.536Z,2.42
2022-12-24T12:53:19.397Z,2.80
2022-12-24T12:56:16.189Z,3.78
2022-12-24T12:58:52.343Z,2.78
2022-12-24T13:01:52.293Z,2.63
2022-12-24T13:04:34.319Z,2.90
2022-12-24T13:07:03.572Z,2.25
2022-12-24T13:09:32.890Z,2.50
2022-12-24T13:12:11.910Z,3.70
2022-12-24T13:15:06.738Z,3.30
2022-12-24T13:18:02.160Z,3.67
2022-12-24T13:20:32.665Z,3.35
2022-12-24T13:23:12.199Z,3.20
2022-12-24T13:25:58.824Z,2.40
2022-12-24T13:28:25.507Z,3.40
2022-12-24T13:30:53.161Z,2.87
2022-12-24T13:33:43.183Z,2.70
2022-12-24T13:36:12.500Z,2.77
2022-12-24T13:38:45.692Z,2.90
2022-12-24T13:41:40.239Z,3.03
2022-12-24T13:44:07.616Z,3.07
2022-12-24T13:46:46.130Z,2.70
2022-12-24T13:49:19.673Z,2.63
2022-12-24T13:51:46.853Z,3.17
2022-12-24T13:54:18.542Z,2.83
2022-12-24T13:56:46.206Z,2.53
2022-12-24T13:59:26.134Z,3.20
2022-12-24T14:01:53.366Z,2.83
2022-12-24T14:04:29.327Z,2.80
2022-12-24T14:06:59.598Z,2.93
2022-12-24T14:09:28.634Z,2.77
2022-12-24T14:12:01.543Z,2.78
2022-12-24T14:14:32.328Z,2.60
2022-12-24T14:17:06.000Z,2.53
2022-12-24T14:19:42.411Z,2.17
2022-12-24T14:22:12.168Z,2.67
2022-12-24T14:24:43.437Z,2.72
2022-12-24T14:27:32.365Z,2.33
2022-12-24T14:30:02.985Z,3.03
2022-12-24T14:32:35.867Z,2.40
2022-12-24T14:35:15.406Z,2.40
2022-12-24T14:37:46.242Z,2.80
2022-12-24T14:40:20.367Z,3.07
2022-12-24T14:43:08.912Z,2.47
2022-12-24T14:45:47.405Z,2.50
2022-12-24T14:48:39.021Z,2.40
2022-12-24T14:51:30.455Z,2.50
2022-12-24T14:54:03.246Z,2.20
2022-12-24T14:56:29.952Z,2.10
2022-12-24T14:58:56.541Z,2.60
2022-12-24T15:01:29.463Z,2.33
2022-12-24T15:04:03.643Z,2.20
2022-12-24T15:06:34.600Z,4.37
2022-12-24T15:09:01.681Z,10.40
2022-12-24T15:11:28.646Z,4.70
2022-12-24T15:13:59.157Z,7.30
2022-12-24T15:16:30.538Z,3.97
2022-12-24T15:19:02.915Z,5.10
2022-12-24T15:21:33.567Z,6.60
2022-12-24T15:24:00.687Z,8.30
2022-12-24T15:26:33.153Z,3.83
2022-12-24T15:29:03.688Z,4.13
2022-12-24T15:31:31.426Z,3.80
2022-12-24T15:33:59.457Z,3.60
2022-12-24T15:36:30.966Z,3.93
2022-12-24T15:39:00.775Z,4.47
2022-12-24T15:41:35.988Z,3.80
2022-12-24T15:44:03.339Z,3.77
2022-12-24T15:46:31.845Z,2.97
2022-12-24T15:49:02.280Z,2.97
2022-12-24T15:51:33.913Z,3.20
2022-12-24T15:54:11.483Z,3.03
2022-12-24T15:56:42.390Z,2.80
2022-12-24T15:59:20.991Z,2.73
2022-12-24T16:01:48.689Z,3.10
2022-12-24T16:04:21.468Z,3.07
2022-12-24T16:06:53.407Z,3.07
2022-12-24T16:09:35.315Z,3.40
2022-12-24T16:12:12.057Z,2.40
2022-12-24T16:14:38.940Z,3.10
2022-12-24T16:17:23.060Z,3.03
2022-12-24T16:19:59.080Z,3.07
2022-12-24T16:22:26.488Z,3.10
2022-12-24T16:24:53.088Z,3.40
2022-12-24T16:27:19.788Z,3.40
2022-12-24T16:29:46.496Z,3.47
2022-12-24T16:32:33.206Z,4.27
2022-12-24T16:35:01.693Z,4.47
2022-12-24T16:37:28.360Z,3.57
2022-12-24T16:39:55.308Z,3.33
2022-12-24T16:42:21.952Z,3.60
2022-12-24T16:44:52.089Z,4.00
2022-12-24T16:47:22.091Z,4.07
2022-12-24T16:49:49.000Z,3.90
2022-12-24T16:52:19.160Z,4.07
2022-12-24T16:54:45.888Z,3.93
2022-12-24T16:57:12.963Z,3.50
2022-12-24T16:59:39.666Z,3.23
2022-12-24T17:02:14.009Z,3.87
2022-12-24T17:04:42.004Z,4.70
2022-12-24T17:07:10.735Z,3.40
2022-12-24T17:09:37.511Z,4.00
2022-12-24T17:12:04.660Z,3.37
2022-12-24T17:14:31.931Z,3.77
2022-12-24T17:16:58.678Z,3.40
2022-12-24T17:19:25.450Z,3.07
2022-12-24T17:21:52.173Z,3.20
2022-12-24T17:24:18.928Z,3.40
2022-12-24T17:26:45.918Z,2.80
2022-12-24T17:29:12.773Z,2.97
2022-12-24T17:31:39.500Z,3.67
2022-12-24T17:34:06.400Z,2.93
2022-12-24T17:36:33.110Z,2.93
2022-12-24T17:38:59.753Z,2.97
2022-12-24T17:41:26.418Z,3.10
2022-12-24T17:43:53.229Z,3.37
2022-12-24T17:46:22.576Z,3.53
2022-12-24T17:48:53.758Z,3.50
2022-12-24T17:51:26.918Z,3.90
2022-12-24T17:54:01.585Z,4.80
2022-12-24T17:56:33.570Z,5.33
2022-12-24T17:59:00.644Z,4.50
2022-12-24T18:01:30.792Z,4.40
2022-12-24T18:04:02.553Z,4.20
2022-12-24T18:06:29.431Z,4.40
2022-12-24T18:08:56.125Z,4.13
2022-12-24T18:11:49.208Z,4.37
2022-12-24T18:14:18.682Z,3.30
2022-12-24T18:16:49.340Z,4.13
2022-12-24T18:19:20.672Z,3.83
2022-12-24T18:21:51.977Z,4.77
2022-12-24T18:24:19.840Z,4.47
2022-12-24T18:26:49.481Z,4.10
2022-12-24T18:29:17.804Z,4.17
2022-12-24T18:31:45.932Z,4.27
2022-12-24T18:34:14.935Z,3.40
2022-12-24T18:36:51.145Z,4.10
2022-12-24T18:39:22.027Z,3.93
2022-12-24T18:41:49.088Z,4.17
2022-12-24T18:44:24.247Z,3.73
2022-12-24T18:46:51.946Z,4.93
2022-12-24T18:49:18.598Z,4.17
2022-12-24T18:51:45.270Z,4.87
2022-12-24T18:54:11.893Z,4.73
2022-12-24T18:56:38.586Z,4.37
2022-12-24T18:59:05.188Z,3.77
2022-12-24T19:01:34.363Z,4.20
2022-12-24T19:04:01.341Z,4.30
2022-12-24T19:06:30.836Z,4.23
2022-12-24T19:08:59.759Z,3.83
2022-12-24T19:11:29.129Z,3.83
2022-12-24T19:13:55.877Z,4.37
2022-12-24T19:16:22.956Z,3.70
2022-12-24T19:18:49.998Z,3.20
2022-12-24T19:21:18.803Z,3.60
2022-12-24T19:23:46.591Z,3.50
2022-12-24T19:26:17.251Z,4.00
2022-12-24T19:28:44.923Z,3.10
2022-12-24T19:31:20.854Z,3.57
2022-12-24T19:33:53.820Z,3.30
2022-12-24T19:36:24.238Z,2.83
2022-12-24T19:38:50.920Z,3.10
2022-12-24T19:41:19.976Z,3.37
2022-12-24T19:43:48.883Z,3.23
2022-12-24T19:46:19.959Z,3.33
2022-12-24T19:48:56.976Z,3.10
2022-12-24T19:51:25.201Z,3.70
2022-12-24T19:53:54.510Z,3.47
2022-12-24T19:56:25.422Z,3.43
2022-12-24T19:58:52.355Z,3.10
2022-12-24T20:01:24.340Z,3.17
2022-12-24T20:03:53.014Z,3.33
2022-12-24T20:06:21.924Z,3.40
2022-12-24T20:08:48.997Z,3.87
2022-12-24T20:11:18.223Z,4.10
2022-12-24T20:13:46.267Z,4.20
2022-12-24T20:16:19.263Z,4.00
2022-12-24T20:18:57.790Z,4.23
2022-12-24T20:21:25.679Z,4.53
2022-12-24T20:23:52.937Z,3.67
2022-12-24T20:26:22.554Z,4.40
2022-12-24T20:28:49.895Z,4.50
2022-12-24T20:31:28.036Z,6.80
2022-12-24T20:33:57.388Z,7.73
2022-12-24T20:36:25.934Z,8.23
2022-12-24T20:38:52.760Z,7.20
2022-12-24T20:41:21.788Z,6.00
2022-12-24T20:43:49.209Z,5.37
2022-12-24T20:46:17.899Z,4.87
2022-12-24T20:48:44.865Z,5.10
2022-12-24T20:51:22.785Z,5.43
2022-12-24T20:53:52.728Z,5.40
2022-12-24T20:56:19.817Z,4.80
2022-12-24T20:58:46.653Z,4.77
2022-12-24T21:01:17.772Z,4.50
2022-12-24T21:03:45.041Z,4.97
2022-12-24T21:06:11.832Z,5.33
2022-12-24T21:08:38.616Z,5.53
2022-12-24T21:11:05.352Z,5.40
2022-12-24T21:13:34.421Z,5.40
2022-12-24T21:16:01.303Z,4.57
2022-12-24T21:18:28.091Z,4.60
2022-12-24T21:20:54.792Z,4.33
2022-12-24T21:23:24.471Z,4.57
2022-12-24T21:26:00.206Z,4.50
2022-12-24T21:28:28.156Z,4.10
2022-12-24T21:30:55.083Z,5.20
2022-12-24T21:33:22.615Z,5.97
2022-12-24T21:35:49.316Z,6.23
2022-12-24T21:38:16.152Z,6.57
2022-12-24T21:40:42.804Z,5.33
2022-12-24T21:43:10.192Z,4.03
2022-12-24T21:45:40.680Z,4.73
2022-12-24T21:48:07.339Z,4.83
2022-12-24T21:50:34.362Z,5.13
2022-12-24T21:53:01.717Z,5.00
2022-12-24T21:55:28.445Z,5.40
2022-12-24T21:57:55.549Z,5.63
2022-12-24T22:00:22.220Z,4.80
2022-12-24T22:02:51.930Z,5.27
2022-12-24T22:05:19.643Z,4.93
2022-12-24T22:07:46.549Z,4.90
2022-12-24T22:10:15.309Z,5.27
2022-12-24T22:12:42.133Z,5.33
2022-12-24T22:15:09.071Z,5.17
2022-12-24T22:17:35.767Z,5.23
2022-12-24T22:20:02.534Z,5.70
2022-12-24T22:22:29.793Z,5.97
2022-12-24T22:24:56.373Z,7.27
2022-12-24T22:27:23.125Z,6.03
2022-12-24T22:29:49.718Z,6.97
2022-12-24T22:32:16.377Z,5.50
2022-12-24T22:34:43.201Z,5.47
2022-12-24T22:37:09.916Z,5.90
2022-12-24T22:39:36.557Z,5.20
2022-12-24T22:42:03.285Z,5.20
2022-12-24T22:44:29.983Z,5.30
2022-12-24T22:46:56.745Z,5.10
2022-12-24T22:49:23.804Z,5.70
2022-12-24T22:51:50.424Z,5.17
2022-12-24T22:54:17.025Z,5.27
2022-12-24T22:56:44.125Z,5.20
2022-12-24T22:59:14.293Z,5.20
2022-12-24T23:01:44.379Z,5.53
2022-12-24T23:04:12.166Z,5.23
2022-12-24T23:06:39.377Z,5.27
2022-12-24T23:09:08.488Z,5.40
2022-12-24T23:11:35.777Z,5.80
2022-12-24T23:14:02.498Z,5.77
2022-12-24T23:16:31.845Z,6.20
2022-12-24T23:19:00.649Z,5.77
2022-12-24T23:21:28.095Z,5.67
2022-12-24T23:23:57.342Z,6.20
2022-12-24T23:26:24.820Z,5.87
2022-12-24T23:28:51.629Z,6.17
2022-12-24T23:31:19.777Z,5.70
2022-12-24T23:33:47.020Z,5.47
2022-12-24T23:36:14.052Z,5.70
2022-12-24T23:38:41.024Z,4.97
2022-12-24T23:41:09.413Z,5.47
2022-12-24T23:43:37.160Z,5.10
2022-12-24T23:46:04.435Z,5.47
2022-12-24T23:48:31.206Z,5.47
2022-12-24T23:51:26.304Z,6.17
2022-12-24T23:53:54.980Z,5.47
2022-12-24T23:56:23.710Z,6.37
2022-12-24T23:58:50.770Z,6.23
